createdAt,value
2018-08-11T00:04:32.119Z,2.60
2018-08-11T00:09:13.252Z,2.17
2018-08-11T00:13:52.968Z,2.00
2018-08-11T00:18:32.737Z,2.45
2018-08-11T00:23:12.516Z,2.50
2018-08-11T00:27:52.840Z,2.45
2018-08-11T00:32:32.853Z,2.22
2018-08-11T00:37:12.967Z,2.27
2018-08-11T00:41:52.923Z,2.40
2018-08-11T00:46:33.051Z,2.45
2018-08-11T00:51:13.423Z,2.25
2018-08-11T00:55:53.283Z,1.90
2018-08-11T01:00:33.244Z,2.30
2018-08-11T01:05:15.367Z,2.25
2018-08-11T01:09:55.520Z,1.75
2018-08-11T01:14:35.719Z,2.10
2018-08-11T01:19:16.759Z,2.15
2018-08-11T01:23:57.467Z,2.00
2018-08-11T01:28:37.659Z,2.33
2018-08-11T01:33:17.781Z,2.00
2018-08-11T01:37:57.721Z,2.15
2018-08-11T01:42:37.731Z,2.00
2018-08-11T01:47:17.694Z,2.47
2018-08-11T01:51:58.183Z,2.10
2018-08-11T01:56:38.008Z,2.70
2018-08-11T02:01:19.131Z,2.62
2018-08-11T02:06:00.092Z,2.30
2018-08-11T02:10:41.142Z,2.15
2018-08-11T02:15:20.847Z,2.22
2018-08-11T02:20:00.840Z,2.60
2018-08-11T02:24:41.330Z,2.55
2018-08-11T02:29:21.019Z,2.70
2018-08-11T02:34:02.348Z,2.33
2018-08-11T02:38:43.301Z,2.00
2018-08-11T02:43:24.145Z,2.15
2018-08-11T02:48:06.151Z,2.05
2018-08-11T02:52:47.043Z,2.10
2018-08-11T02:57:27.636Z,2.00
2018-08-11T03:02:07.916Z,2.55
2018-08-11T03:06:49.627Z,2.02
2018-08-11T03:11:29.344Z,2.33
2018-08-11T03:16:09.625Z,1.90
2018-08-11T03:20:50.782Z,2.15
2018-08-11T03:25:30.475Z,2.00
2018-08-11T03:30:10.402Z,2.12
2018-08-11T03:34:51.469Z,2.25
2018-08-11T03:39:31.987Z,2.00
2018-08-11T03:44:12.196Z,2.37
2018-08-11T03:48:52.196Z,2.22
2018-08-11T03:53:33.295Z,2.02
2018-08-11T03:58:13.932Z,2.00
2018-08-11T04:02:54.424Z,2.33
2018-08-11T04:07:35.195Z,2.10
2018-08-11T04:12:14.975Z,2.27
2018-08-11T04:16:54.790Z,2.12
2018-08-11T04:21:35.499Z,2.17
2018-08-11T04:26:15.395Z,2.40
2018-08-11T04:30:55.063Z,2.25
2018-08-11T04:35:35.639Z,2.62
2018-08-11T04:40:15.640Z,2.85
2018-08-11T04:44:55.576Z,2.37
2018-08-11T04:49:36.307Z,2.08
2018-08-11T04:54:16.421Z,2.00
2018-08-11T04:58:56.334Z,2.20
2018-08-11T05:03:36.147Z,2.58
2018-08-11T05:08:15.815Z,2.35
2018-08-11T05:12:57.556Z,2.35
2018-08-11T05:17:37.630Z,2.27
2018-08-11T05:22:18.021Z,2.30
2018-08-11T05:26:58.420Z,2.40
2018-08-11T05:31:38.088Z,2.12
2018-08-11T05:36:19.968Z,2.27
2018-08-11T05:40:59.768Z,2.20
2018-08-11T05:45:39.455Z,2.10
2018-08-11T05:50:19.460Z,2.15
2018-08-11T05:54:59.815Z,2.20
2018-08-11T05:59:39.563Z,2.58
2018-08-11T06:04:19.444Z,2.30
2018-08-11T06:09:00.009Z,2.30
2018-08-11T06:13:40.012Z,2.40
2018-08-11T06:18:21.279Z,2.35
2018-08-11T06:23:01.255Z,2.12
2018-08-11T06:27:41.352Z,2.30
2018-08-11T06:32:21.420Z,2.40
2018-08-11T06:37:02.028Z,2.20
2018-08-11T06:41:42.650Z,2.00
2018-08-11T06:46:23.411Z,2.00
2018-08-11T06:51:03.194Z,2.15
2018-08-11T06:55:43.044Z,2.30
2018-08-11T07:00:23.501Z,2.17
2018-08-11T07:05:04.070Z,2.20
2018-08-11T07:09:44.560Z,2.35
2018-08-11T07:14:24.544Z,2.10
2018-08-11T07:19:05.235Z,2.50
2018-08-11T07:23:46.579Z,2.10
2018-08-11T07:28:27.343Z,2.22
2018-08-11T07:33:07.736Z,1.90
2018-08-11T07:37:47.547Z,1.75
2018-08-11T07:42:27.216Z,1.70
2018-08-11T07:47:07.313Z,2.00
2018-08-11T07:51:48.817Z,1.80
2018-08-11T07:56:28.999Z,1.85
2018-08-11T08:01:09.036Z,2.30
2018-08-11T08:05:51.341Z,1.65
2018-08-11T08:10:31.564Z,1.95
2018-08-11T08:15:13.255Z,2.20
2018-08-11T08:19:54.827Z,1.60
2018-08-11T08:24:35.647Z,1.40
2018-08-11T08:29:16.422Z,1.47
2018-08-11T08:33:57.749Z,1.12
2018-08-11T08:38:38.913Z,1.40
2018-08-11T08:43:19.750Z,1.40
2018-08-11T08:47:59.803Z,1.50
2018-08-11T08:52:47.234Z,1.57
2018-08-11T08:57:27.275Z,1.50
2018-08-11T09:02:08.775Z,1.30
2018-08-11T09:06:49.859Z,1.42
2018-08-11T09:11:31.087Z,1.20
2018-08-11T09:16:13.622Z,1.32
2018-08-11T09:20:56.661Z,1.50
2018-08-11T09:25:37.172Z,1.15
2018-08-11T09:30:18.364Z,1.60
2018-08-11T09:35:00.125Z,1.80
2018-08-11T09:39:42.066Z,1.80
2018-08-11T09:44:22.965Z,1.60
2018-08-11T09:49:02.850Z,1.80
2018-08-11T09:53:44.041Z,1.57
2018-08-11T09:58:26.089Z,1.70
2018-08-11T10:03:11.548Z,1.27
2018-08-11T10:07:51.653Z,1.40
2018-08-11T10:12:32.330Z,1.40
2018-08-11T10:17:13.111Z,1.52
2018-08-11T10:21:53.489Z,1.60
2018-08-11T10:26:34.224Z,1.27
2018-08-11T10:31:14.920Z,1.20
2018-08-11T10:35:54.992Z,1.42
2018-08-11T10:40:35.560Z,1.60
2018-08-11T10:45:16.448Z,1.30
2018-08-11T10:49:56.043Z,1.42
2018-08-11T10:54:36.175Z,1.12
2018-08-11T10:59:16.525Z,1.22
2018-08-11T11:03:59.104Z,1.17
2018-08-11T11:08:38.848Z,1.20
2018-08-11T11:13:19.950Z,1.12
2018-08-11T11:18:00.832Z,1.10
2018-08-11T11:22:42.108Z,1.20
2018-08-11T11:27:24.097Z,1.20
2018-08-11T11:32:03.896Z,1.30
2018-08-11T11:36:43.763Z,1.20
2018-08-11T11:41:25.292Z,1.12
2018-08-11T11:46:05.375Z,1.20
2018-08-11T11:50:45.434Z,1.20
2018-08-11T11:55:25.947Z,1.20
2018-08-11T12:00:06.056Z,1.17
2018-08-11T12:04:46.435Z,1.30
2018-08-11T12:09:27.199Z,1.50
2018-08-11T12:14:07.525Z,1.22
2018-08-11T12:18:47.319Z,1.50
2018-08-11T12:23:27.181Z,1.30
2018-08-11T12:28:07.313Z,1.67
2018-08-11T12:33:03.445Z,1.98
2018-08-11T12:37:43.903Z,1.55
2018-08-11T12:42:23.977Z,2.00
2018-08-11T12:47:04.396Z,1.00
2018-08-11T12:51:44.371Z,1.30
2018-08-11T12:56:24.150Z,1.20
2018-08-11T13:01:04.004Z,1.25
2018-08-11T13:05:43.959Z,1.25
2018-08-11T13:10:24.214Z,1.20
2018-08-11T13:15:05.683Z,1.15
2018-08-11T13:19:46.666Z,1.10
2018-08-11T13:24:27.761Z,1.20
2018-08-11T13:29:08.384Z,0.98
2018-08-11T13:34:00.980Z,1.07
2018-08-11T13:38:41.647Z,1.15
2018-08-11T13:43:21.730Z,1.30
2018-08-11T13:48:01.752Z,1.42
2018-08-11T13:52:41.688Z,1.22
2018-08-11T13:57:22.637Z,0.93
2018-08-11T14:02:03.947Z,1.30
2018-08-11T14:06:44.336Z,1.20
2018-08-11T14:11:26.112Z,1.20
2018-08-11T14:16:06.266Z,1.50
2018-08-11T14:20:49.765Z,1.25
2018-08-11T14:25:30.392Z,1.30
2018-08-11T14:30:11.533Z,1.20
2018-08-11T14:34:52.207Z,1.42
2018-08-11T14:39:33.316Z,1.30
2018-08-11T14:44:13.237Z,1.72
2018-08-11T14:48:54.195Z,1.10
2018-08-11T14:53:34.628Z,1.20
2018-08-11T14:58:15.842Z,1.37
2018-08-11T15:02:56.563Z,1.30
2018-08-11T15:07:39.013Z,1.45
2018-08-11T15:12:18.887Z,1.40
2018-08-11T15:16:58.657Z,1.30
2018-08-11T15:21:38.730Z,1.30
2018-08-11T15:26:19.671Z,1.60
2018-08-11T15:31:01.715Z,2.35
2018-08-11T15:35:42.025Z,1.37
2018-08-11T15:40:22.200Z,1.50
2018-08-11T15:45:02.228Z,1.30
2018-08-11T15:49:42.633Z,1.40
2018-08-11T15:54:23.319Z,5.40
2018-08-11T15:59:03.065Z,6.85
2018-08-11T16:03:43.224Z,1.90
2018-08-11T16:08:23.072Z,1.40
2018-08-11T16:13:03.452Z,1.20
2018-08-11T16:17:44.250Z,1.30
2018-08-11T16:22:24.436Z,1.35
2018-08-11T16:27:04.504Z,1.20
2018-08-11T16:31:44.212Z,1.32
2018-08-11T16:36:27.067Z,1.40
2018-08-11T16:41:07.580Z,1.42
2018-08-11T16:45:48.126Z,1.40
2018-08-11T16:50:28.508Z,1.30
2018-08-11T16:55:08.532Z,1.32
2018-08-11T16:59:49.100Z,1.30
2018-08-11T17:04:29.443Z,1.30
2018-08-11T17:09:11.588Z,1.65
2018-08-11T17:13:51.632Z,1.32
2018-08-11T17:18:31.987Z,1.27
2018-08-11T17:23:12.830Z,1.85
2018-08-11T17:27:52.699Z,3.00
2018-08-11T17:32:32.730Z,1.90
2018-08-11T17:37:12.698Z,2.10
2018-08-11T17:41:52.701Z,1.40
2018-08-11T17:46:32.715Z,1.77
2018-08-11T17:51:12.808Z,1.60
2018-08-11T17:55:52.724Z,1.15
2018-08-11T18:00:34.738Z,1.70
2018-08-11T18:05:15.164Z,2.17
2018-08-11T18:09:55.089Z,1.50
2018-08-11T18:14:35.177Z,2.17
2018-08-11T18:19:15.718Z,1.98
2018-08-11T18:23:56.383Z,1.55
2018-08-11T18:28:36.391Z,1.65
2018-08-11T18:33:16.237Z,2.30
2018-08-11T18:37:56.501Z,5.30
2018-08-11T18:42:36.312Z,1.82
2018-08-11T18:47:16.903Z,1.70
2018-08-11T18:51:57.563Z,5.12
2018-08-11T18:56:37.661Z,2.37
2018-08-11T19:01:18.100Z,2.92
2018-08-11T19:05:58.018Z,1.87
2018-08-11T19:10:38.002Z,2.20
2018-08-11T19:15:17.928Z,2.20
2018-08-11T19:19:58.449Z,2.12
2018-08-11T19:24:39.380Z,1.75
2018-08-11T19:29:20.155Z,1.65
2018-08-11T19:34:00.668Z,1.60
2018-08-11T19:38:40.732Z,1.90
2018-08-11T19:43:21.322Z,1.72
2018-08-11T19:48:02.053Z,1.80
2018-08-11T19:52:42.494Z,1.65
2018-08-11T19:57:22.677Z,1.82
2018-08-11T20:02:03.259Z,1.80
2018-08-11T20:15:48.209Z,1.70
2018-08-11T20:20:29.232Z,1.92
2018-08-11T20:25:09.807Z,2.00
2018-08-11T20:29:49.743Z,2.50
2018-08-11T20:34:30.213Z,2.20
2018-08-11T20:39:13.503Z,2.80
2018-08-11T20:43:54.133Z,2.62
2018-08-11T20:48:34.727Z,2.05
2018-08-11T20:53:15.724Z,1.80
2018-08-11T20:57:55.660Z,1.62
2018-08-11T21:02:36.003Z,1.92
2018-08-11T21:07:15.884Z,2.00
2018-08-11T21:11:56.563Z,2.00
2018-08-11T21:16:36.367Z,2.05
2018-08-11T21:21:16.528Z,1.92
2018-08-11T21:25:56.908Z,2.00
2018-08-11T21:30:36.755Z,1.90
2018-08-11T21:35:17.231Z,2.08
2018-08-11T21:39:57.516Z,2.08
2018-08-11T21:44:38.621Z,2.22
2018-08-11T21:49:19.745Z,1.92
2018-08-11T21:54:00.700Z,2.55
2018-08-11T21:58:40.707Z,2.12
2018-08-11T22:03:21.083Z,2.80
2018-08-11T22:08:02.028Z,3.05
2018-08-11T22:12:41.865Z,2.45
2018-08-11T22:17:22.059Z,2.25
2018-08-11T22:22:01.988Z,3.40
2018-08-11T22:26:41.903Z,4.00
2018-08-11T22:31:21.679Z,3.40
2018-08-11T22:36:02.224Z,2.70
2018-08-11T22:40:42.324Z,2.80
2018-08-11T22:45:23.179Z,3.30
2018-08-11T22:50:03.199Z,3.08
2018-08-11T22:54:43.076Z,2.83
2018-08-11T22:59:23.087Z,3.58
2018-08-11T23:04:03.428Z,3.20
2018-08-11T23:08:43.212Z,2.92
2018-08-11T23:13:23.345Z,2.85
2018-08-11T23:18:03.943Z,2.65
2018-08-11T23:22:45.035Z,2.60
2018-08-11T23:27:25.542Z,2.85
2018-08-11T23:32:07.593Z,2.70
2018-08-11T23:36:48.440Z,2.92
2018-08-11T23:41:28.232Z,2.45
2018-08-11T23:46:09.447Z,2.72
2018-08-11T23:50:49.389Z,3.27
2018-08-11T23:55:29.780Z,2.70
